Flight Track Log - Related Links

Times and Time Zones

All times are in EDT time to prevent confusion due to time zone crossing. See the XOJ750 flight status page for this flight to view local times or setup timezone preferences in your user account.

Time Position Orientation Groundspeed Altitude Reporting Facility
EDT Latitude Longitude Course Direction KTS MPH feet Rate Location/Type
Mon 02:44:54 PM 34.1869 -118.4892 116° Southeast 173 199 1,700  Level Los Angeles Center
Mon 02:45:56 PM 34.1653 -118.4353 116° Southeast 273 314 4,000 2,226 Climbing Los Angeles Center
Mon 02:46:58 PM 34.2272 -118.4483 350° North 253 291 6,300 2,226 Climbing Los Angeles Center
Mon 02:48:00 PM 34.2992 -118.4319 11° North 279 321 8,600 2,304 Climbing Los Angeles Center
Mon 02:49:03 PM 34.3711 -118.3881 27° Northeast 287 330 11,100 2,208 Climbing Los Angeles Center
Mon 02:50:05 PM 34.4503 -118.3406 26° Northeast 314 361 13,200 1,935 Climbing Los Angeles Center
Mon 02:51:07 PM 34.5292 -118.2283 50° Northeast 369 425 15,100 1,790 Climbing Los Angeles Center
Mon 02:52:09 PM 34.5864 -118.1353 53° Northeast 380 437 16,900 1,790 Climbing Los Angeles Center
Mon 02:53:11 PM 34.6361 -118.0225 62° Northeast 381 438 18,800 2,323 Climbing Los Angeles Center
Mon 02:54:13 PM 34.6522 -117.8697 83° East 381 438 21,700 2,758 Climbing Los Angeles Center
Mon 02:55:15 PM 34.6661 -117.7514 82° East 364 419 24,500 2,226 Climbing Los Angeles Center
Mon 02:56:17 PM 34.6944 -117.6383 73° East 355 409 26,300 1,344 Climbing Los Angeles Center
Mon 02:57:20 PM 34.7253 -117.5164 73° East 372 428 27,300 960 Climbing Los Angeles Center
Mon 02:58:22 PM 34.7592 -117.3858 72° East 401 461 28,300 1,032 Climbing Los Angeles Center
Mon 03:00:26 PM 34.8478 -117.0836 70° East 442 509 30,500 1,032 Climbing Los Angeles Center
Mon 03:01:28 PM 34.8961 -116.9414 67° East 455 524 31,500 968 Climbing Los Angeles Center
Mon 03:02:30 PM 34.9744 -116.8156 53° Northeast 468 539 32,500 968 Climbing Los Angeles Center
Mon 03:03:32 PM 35.0614 -116.6908 50° Northeast 480 552 33,500 1,065 Climbing Los Angeles Center
Mon 03:04:34 PM 35.1639 -116.5375 51° Northeast 486 559 34,700 1,016 Climbing Los Angeles Center
Mon 03:05:36 PM 35.2525 -116.4083 50° Northeast 498 573 35,600 919 Climbing Los Angeles Center
Mon 03:06:38 PM 35.3400 -116.2764 51° Northeast 501 577 36,600 968 Climbing Los Angeles Center
Mon 03:07:40 PM 35.4272 -116.1456 51° Northeast 499 574 37,600 968 Climbing Los Angeles Center
Mon 03:08:42 PM 35.5161 -116.0158 50° Northeast 497 572 38,600 1,016 Climbing Los Angeles Center
Mon 03:09:44 PM 35.6169 -115.8631 51° Northeast 493 567 39,700 1,008 Climbing Los Angeles Center
Mon 03:10:47 PM 35.7022 -115.7339 51° Northeast 489 563 40,700 624 Climbing Los Angeles Center
Mon 03:11:49 PM 35.7886 -115.6039 51° Northeast 490 564 41,000 145 Climbing Los Angeles Center
Mon 03:12:51 PM 35.8750 -115.4714 51° Northeast 496 571 41,000  Level Los Angeles Center
Mon 03:13:53 PM 35.9778 -115.3150 51° Northeast 493 567 41,000  Level Los Angeles Center
Mon 03:14:55 PM 36.0594 -115.1864 52° Northeast 482 555 41,000  Level Los Angeles Center
Mon 03:15:57 PM 36.1167 -115.0364 65° Northeast 489 563 41,000  Level Los Angeles Center
Mon 03:16:59 PM 36.1639 -114.8833 69° East 481 554 41,000  Level Los Angeles Center
Mon 03:18:01 PM 36.2114 -114.7286 69° East 482 555 41,000  Level Los Angeles Center
Mon 03:19:03 PM 36.2681 -114.5428 69° East 481 554 41,000  Level Los Angeles Center
Mon 03:20:05 PM 36.3142 -114.3872 70° East 481 554 41,000  Level Los Angeles Center
Mon 03:21:07 PM 36.3606 -114.2319 70° East 481 554 41,000  Level Los Angeles Center
Mon 03:22:09 PM 36.4083 -114.0764 69° East 482 555 41,000  Level Los Angeles Center
Mon 03:23:11 PM 36.4544 -113.9175 70° East 487 560 41,000  Level Los Angeles Center
Mon 03:24:13 PM 36.5108 -113.7292 70° East 493 567 41,000  Level Los Angeles Center
Mon 03:25:15 PM 36.5578 -113.5669 70° East 498 573 41,000  Level Los Angeles Center
Mon 03:26:17 PM 36.6044 -113.4058 70° East 498 573 41,000  Level Los Angeles Center
Mon 03:27:19 PM 36.6514 -113.2453 70° East 497 572 41,000  Level Los Angeles Center
Mon 03:28:21 PM 36.6981 -113.0850 70° East 496 571 41,000  Level Los Angeles Center
Mon 03:29:23 PM 36.7444 -112.9231 70° East 498 573 41,000  Level Los Angeles Center
Mon 03:30:25 PM 36.8006 -112.7317 70° East 495 570 41,000  Level Los Angeles Center
Mon 03:31:26 PM 36.8450 -112.5744 71° East 489 563 41,000  Level Los Angeles Center
Mon 03:32:28 PM 36.8914 -112.4147 70° East 490 564 41,000  Level Los Angeles Center
Mon 03:33:30 PM 36.9350 -112.2550 71° East 490 564 41,000  Level Los Angeles Center
Mon 03:34:32 PM 36.9806 -112.0956 70° East 490 564 41,000  Level Los Angeles Center
Mon 03:35:34 PM 37.0347 -111.9042 70° East 490 564 41,000  Level Los Angeles Center
Mon 03:36:36 PM 37.0789 -111.7408 71° East 496 571 41,000  Level Los Angeles Center
Mon 03:37:38 PM 37.1239 -111.5792 71° East 495 570 41,000  Level Los Angeles Center
Mon 03:38:23 PM 37.1589 -111.4494 71° East 491 565 41,000  Level Denver Center
Mon 03:39:24 PM 37.2017 -111.2867 72° East 493 567 41,000  Level Denver Center
Mon 03:40:26 PM 37.2464 -111.1231 71° East 497 572 41,000 -806 Level Denver Center
Mon 03:42:30 PM 37.3589 -110.8178 65° Northeast 485 558 38,500 -1,290 Descending Denver Center
Mon 03:43:32 PM 37.4189 -110.6614 64° Northeast 498 573 37,000 -1,548 Descending Denver Center
Mon 03:44:34 PM 37.4839 -110.4919 64° Northeast 502 578 35,300 -1,597 Descending Denver Center
Mon 03:45:36 PM 37.5514 -110.3167 64° Northeast 499 574 33,700 -1,694 Descending Denver Center
Mon 03:46:38 PM 37.5939 -110.1581 71° East 498 573 31,800 -2,049 Descending Denver Center
Mon 03:47:39 PM 37.6392 -109.9700 73° East 501 577 29,500 -2,098 Descending Denver Center
Mon 03:48:41 PM 37.6781 -109.8114 73° East 494 568 27,500 -2,118 Descending Denver Center
Mon 03:49:55 PM 37.7358 -109.6383 67° East 479 551 24,700 -2,540 Descending Denver Center
Mon 03:50:58 PM 37.7781 -109.4792 71° East 435 501 21,700 -3,387 Descending Denver Center
Mon 03:51:59 PM 37.8139 -109.3342 73° East 393 452 17,700 -3,366 Descending Denver Center
Mon 03:53:01 PM 37.8417 -109.2028 75° East 398 458 14,800 -1,403 Descending Denver Center
Mon 03:54:03 PM 37.8733 -109.0511 75° East 401 461 14,800  Level Denver Center
Mon 03:55:05 PM 37.8981 -108.9325 75° East 380 437 14,800 -97 Level Denver Center
Mon 03:56:07 PM 37.9269 -108.7983 75° East 363 418 14,600 -581 Descending Denver Center
Mon 03:57:09 PM 37.9478 -108.6956 76° East 338 389 13,600 -1,065 Descending Denver Center
Mon 03:58:11 PM 37.9669 -108.6039 75° East 305 351 12,400 -871 Descending Denver Center
Mon 03:59:13 PM 37.9892 -108.4964 75° East 289 333 11,800 -293 Descending Denver Center
Mon 04:00:14 PM 38.0103 -108.4036 74° East 286 329 11,800  Level Denver Center
Mon 04:01:16 PM 38.0331 -108.2894 76° East 293 337 11,800 -97 Level Denver Center
Mon 04:02:18 PM 38.0136 -108.1967 105° East 286 329 11,600 -339 Descending Denver Center
Mon 04:03:20 PM 37.9928 -108.1103 107° East 262 302 11,100 -484 Descending Denver Center
Mon 04:05:00 PM 37.9538 -107.9088 104° East  Level Estimated
Mon 04:12:00 PM 37.9538 -107.9088 104° East  Level Estimated
Mon 04:13:00 PM 37.9538 -107.9088 104° East  Level Estimated
Mon 04:14:00 PM 37.9538 -107.9088 104° East  Level Estimated
Mon 04:15:00 PM 37.9538 -107.9088 104° East  Level Estimated
Mon 04:16:00 PM 37.9538 -107.9088 104° East  Level Estimated

Login

Don't have an account? Register now (free) for customized features, flight alerts, and more!